createdAt,value
2016-05-15T00:00:07.950Z,0
2016-05-15T00:01:07.921Z,0
2016-05-15T00:02:07.752Z,0
2016-05-15T00:03:08.129Z,0
2016-05-15T00:04:08.227Z,0
2016-05-15T00:05:07.855Z,0
2016-05-15T00:06:07.997Z,0
2016-05-15T00:07:07.829Z,0
2016-05-15T00:08:07.956Z,0
2016-05-15T00:09:07.942Z,0
2016-05-15T00:10:07.929Z,0
2016-05-15T00:11:07.761Z,0
2016-05-15T00:12:07.592Z,0
2016-05-15T00:13:07.891Z,0
2016-05-15T00:14:07.706Z,0
2016-05-15T00:15:07.678Z,0
2016-05-15T00:16:07.696Z,0
2016-05-15T00:17:07.808Z,0
2016-05-15T00:18:07.795Z,0
2016-05-15T00:19:08.376Z,0
2016-05-15T00:20:08.738Z,0
2016-05-15T00:21:07.756Z,0
2016-05-15T00:22:07.728Z,0
2016-05-15T00:23:07.417Z,0
2016-05-15T00:24:07.703Z,0
2016-05-15T00:25:07.533Z,0
2016-05-15T00:26:07.880Z,0
2016-05-15T00:27:07.647Z,0
2016-05-15T00:28:07.931Z,0
2016-05-15T00:29:07.621Z,0
2016-05-15T00:30:07.608Z,0
2016-05-15T00:31:07.783Z,0
2016-05-15T00:32:07.614Z,0
2016-05-15T00:33:07.555Z,0
2016-05-15T00:34:08.010Z,0
2016-05-15T00:35:07.529Z,0
2016-05-15T00:36:07.515Z,0
2016-05-15T00:37:07.330Z,0
2016-05-15T00:38:07.677Z,0
2016-05-15T00:39:07.320Z,0
2016-05-15T00:40:07.448Z,0
2016-05-15T00:41:08.326Z,0
2016-05-15T00:42:07.406Z,0
2016-05-15T00:43:07.237Z,0
2016-05-15T00:44:07.381Z,0
2016-05-15T00:45:07.352Z,0
2016-05-15T00:46:07.339Z,0
2016-05-15T00:47:07.717Z,0
2016-05-15T00:48:07.314Z,0
2016-05-15T00:49:08.128Z,0
2016-05-15T00:50:07.288Z,0
2016-05-15T00:51:07.103Z,0
2016-05-15T00:52:07.090Z,0
2016-05-15T00:53:07.217Z,0
2016-05-15T00:54:07.205Z,0
2016-05-15T00:55:07.191Z,0
2016-05-15T00:56:07.022Z,0
2016-05-15T00:57:07.150Z,0
2016-05-15T00:58:07.653Z,0
2016-05-15T00:59:08.030Z,0
2016-05-15T01:00:06.986Z,0
2016-05-15T01:01:07.099Z,0
2016-05-15T01:02:07.085Z,0
2016-05-15T01:03:06.900Z,0
2016-05-15T01:04:07.185Z,0
2016-05-15T01:05:07.031Z,0
2016-05-15T01:06:06.877Z,0
2016-05-15T01:07:07.365Z,0
2016-05-15T01:08:07.086Z,0
2016-05-15T01:09:06.963Z,0
2016-05-15T01:10:06.966Z,0
2016-05-15T01:11:06.954Z,0
2016-05-15T01:12:06.613Z,0
2016-05-15T01:13:06.756Z,0
2016-05-15T01:14:06.899Z,0
2016-05-15T01:15:06.886Z,0
2016-05-15T01:16:06.873Z,0
2016-05-15T01:17:06.860Z,0
2016-05-15T01:18:06.675Z,0
2016-05-15T01:19:06.897Z,0
2016-05-15T01:20:06.650Z,0
2016-05-15T01:21:06.777Z,0
2016-05-15T01:22:06.765Z,0
2016-05-15T01:23:06.767Z,0
2016-05-15T01:24:06.739Z,0
2016-05-15T01:25:06.709Z,0
2016-05-15T01:26:06.697Z,0
2016-05-15T01:27:06.528Z,0
2016-05-15T01:28:06.530Z,0
2016-05-15T01:29:06.642Z,0
2016-05-15T01:30:06.677Z,0
2016-05-15T01:31:06.647Z,0
2016-05-15T01:32:06.650Z,0
2016-05-15T01:33:06.481Z,0
2016-05-15T01:34:07.500Z,0
2016-05-15T01:35:06.455Z,0
2016-05-15T01:36:06.583Z,0
2016-05-15T01:37:06.571Z,0
2016-05-15T01:38:06.541Z,0
2016-05-15T01:39:06.544Z,0
2016-05-15T01:40:06.516Z,0
2016-05-15T01:41:06.190Z,0
2016-05-15T01:42:06.474Z,0
2016-05-15T01:43:06.476Z,0
2016-05-15T01:44:06.448Z,0
2016-05-15T01:45:06.451Z,0
2016-05-15T01:46:06.422Z,0
2016-05-15T01:47:06.409Z,0
2016-05-15T01:48:06.396Z,0
2016-05-15T01:49:06.415Z,0
2016-05-15T01:50:06.356Z,0
2016-05-15T01:51:06.342Z,0
2016-05-15T01:52:06.345Z,0
2016-05-15T01:53:06.316Z,0
2016-05-15T01:54:06.304Z,0
2016-05-15T01:55:06.275Z,0
2016-05-15T01:56:06.247Z,0
2016-05-15T01:57:06.092Z,0
2016-05-15T01:58:06.236Z,0
2016-05-15T01:59:06.208Z,0
2016-05-15T02:00:06.194Z,0
2016-05-15T02:01:06.025Z,0
2016-05-15T02:02:06.169Z,0
2016-05-15T02:03:05.984Z,0
2016-05-15T02:04:06.689Z,0
2016-05-15T02:05:06.114Z,0
2016-05-15T02:06:05.632Z,0
2016-05-15T02:07:06.072Z,0
2016-05-15T02:08:05.919Z,0
2016-05-15T02:09:06.046Z,0
2016-05-15T02:10:06.035Z,0
2016-05-15T02:11:06.021Z,0
2016-05-15T02:12:06.008Z,0
2016-05-15T02:13:05.995Z,0
2016-05-15T02:14:05.811Z,0
2016-05-15T02:15:05.798Z,0
2016-05-15T02:16:05.940Z,0
2016-05-15T02:17:05.944Z,0
2016-05-15T02:18:05.915Z,0
2016-05-15T02:19:06.073Z,0
2016-05-15T02:20:05.890Z,0
2016-05-15T02:21:05.548Z,0
2016-05-15T02:22:05.832Z,0
2016-05-15T02:23:05.819Z,0
2016-05-15T02:24:05.822Z,0
2016-05-15T02:25:05.621Z,0
2016-05-15T02:26:05.608Z,0
2016-05-15T02:27:05.611Z,0
2016-05-15T02:28:05.739Z,0
2016-05-15T02:29:05.757Z,0
2016-05-15T02:30:05.728Z,0
2016-05-15T02:31:05.700Z,0
2016-05-15T02:32:05.671Z,0
2016-05-15T02:33:05.675Z,0
2016-05-15T02:34:05.349Z,0
2016-05-15T02:35:05.647Z,0
2016-05-15T02:36:05.463Z,0
2016-05-15T02:37:05.607Z,0
2016-05-15T02:38:05.578Z,0
2016-05-15T02:39:05.596Z,0
2016-05-15T02:40:05.630Z,0
2016-05-15T02:41:05.430Z,0
2016-05-15T02:42:05.401Z,0
2016-05-15T02:43:05.341Z,0
2016-05-15T02:44:05.469Z,0
2016-05-15T02:45:05.472Z,0
2016-05-15T02:46:05.459Z,0
2016-05-15T02:47:05.430Z,0
2016-05-15T02:48:05.261Z,0
2016-05-15T02:49:05.592Z,0
2016-05-15T02:50:05.392Z,0
2016-05-15T02:51:05.394Z,0
2016-05-15T02:52:05.054Z,0
2016-05-15T02:53:05.196Z,0
2016-05-15T02:54:05.323Z,0
2016-05-15T02:55:05.326Z,0
2016-05-15T02:56:05.298Z,0
2016-05-15T02:57:05.129Z,0
2016-05-15T02:58:05.256Z,0
2016-05-15T02:59:05.245Z,0
2016-05-15T03:00:05.075Z,0
2016-05-15T03:01:05.217Z,0
2016-05-15T03:02:05.205Z,0
2016-05-15T03:03:05.177Z,0
2016-05-15T03:04:04.944Z,0
2016-05-15T03:05:04.994Z,0
2016-05-15T03:06:05.138Z,0
2016-05-15T03:07:04.953Z,0
2016-05-15T03:08:04.955Z,0
2016-05-15T03:09:05.083Z,0
2016-05-15T03:10:05.071Z,0
2016-05-15T03:11:05.057Z,0
2016-05-15T03:12:05.060Z,0
2016-05-15T03:13:04.579Z,0
2016-05-15T03:14:05.035Z,0
2016-05-15T03:15:05.037Z,0
2016-05-15T03:16:04.977Z,0
2016-05-15T03:17:04.808Z,0
2016-05-15T03:18:04.935Z,0
2016-05-15T03:19:04.798Z,0
2016-05-15T03:20:04.768Z,0
2016-05-15T03:21:04.897Z,0
2016-05-15T03:22:04.884Z,0
2016-05-15T03:23:04.573Z,0
2016-05-15T03:24:04.968Z,0
2016-05-15T03:25:04.845Z,0
2016-05-15T03:26:04.816Z,0
2016-05-15T03:27:04.648Z,0
2016-05-15T03:28:04.790Z,0
2016-05-15T03:29:04.622Z,0
2016-05-15T03:30:04.624Z,0
2016-05-15T03:31:04.611Z,0
2016-05-15T03:32:04.583Z,0
2016-05-15T03:33:04.710Z,0
2016-05-15T03:34:04.588Z,0
2016-05-15T03:35:04.372Z,0
2016-05-15T03:36:04.687Z,0
2016-05-15T03:37:04.658Z,5
2016-05-15T03:38:04.489Z,5
2016-05-15T03:39:04.649Z,5
2016-05-15T03:40:04.479Z,5
2016-05-15T03:41:04.435Z,5
2016-05-15T03:42:04.578Z,5
2016-05-15T03:43:04.550Z,5
2016-05-15T03:44:04.552Z,5
2016-05-15T03:45:04.382Z,10
2016-05-15T03:46:04.355Z,10
2016-05-15T03:47:04.498Z,10
2016-05-15T03:48:04.484Z,10
2016-05-15T03:49:05.441Z,10
2016-05-15T03:50:04.304Z,15
2016-05-15T03:51:04.118Z,15
2016-05-15T03:52:04.417Z,15
2016-05-15T03:53:04.265Z,15
2016-05-15T03:54:04.392Z,20
2016-05-15T03:55:04.222Z,20
2016-05-15T03:56:04.366Z,25
2016-05-15T03:57:04.197Z,25
2016-05-15T03:58:04.184Z,30
2016-05-15T03:59:04.311Z,30
2016-05-15T04:00:04.298Z,35
2016-05-15T04:01:04.286Z,35
2016-05-15T04:02:04.272Z,40
2016-05-15T04:03:04.244Z,40
2016-05-15T04:04:04.825Z,45
2016-05-15T04:05:04.219Z,50
2016-05-15T04:06:04.189Z,50
2016-05-15T04:07:04.427Z,50
2016-05-15T04:08:04.180Z,50
2016-05-15T04:09:04.010Z,55
2016-05-15T04:10:04.153Z,55
2016-05-15T04:11:03.969Z,60
2016-05-15T04:12:04.113Z,65
2016-05-15T04:13:04.099Z,65
2016-05-15T04:14:04.085Z,70
2016-05-15T04:15:04.074Z,75
2016-05-15T04:16:04.091Z,75
2016-05-15T04:17:04.031Z,75
2016-05-15T04:18:04.035Z,75
2016-05-15T04:19:04.365Z,80
2016-05-15T04:20:03.852Z,80
2016-05-15T04:21:03.824Z,85
2016-05-15T04:22:03.655Z,90
2016-05-15T04:23:03.954Z,90
2016-05-15T04:24:03.940Z,95
2016-05-15T04:25:03.835Z,95
2016-05-15T04:26:03.915Z,100
2016-05-15T04:27:03.887Z,105
2016-05-15T04:28:03.873Z,110
2016-05-15T04:29:03.861Z,110
2016-05-15T04:30:03.848Z,115
2016-05-15T04:31:03.834Z,120
2016-05-15T04:32:03.853Z,125
2016-05-15T04:33:03.637Z,130
2016-05-15T04:34:04.078Z,135
2016-05-15T04:35:03.455Z,140
2016-05-15T04:36:03.598Z,140
2016-05-15T04:37:03.414Z,145
2016-05-15T04:38:03.713Z,150
2016-05-15T04:39:03.731Z,155
2016-05-15T04:40:03.375Z,160
2016-05-15T04:41:03.518Z,165
2016-05-15T04:42:03.505Z,170
2016-05-15T04:43:03.664Z,175
2016-05-15T04:44:03.651Z,180
2016-05-15T04:45:03.622Z,185
2016-05-15T04:46:03.609Z,190
2016-05-15T04:47:03.425Z,190
2016-05-15T04:48:03.412Z,185
2016-05-15T04:49:04.274Z,190
2016-05-15T04:50:03.543Z,190
2016-05-15T04:51:03.373Z,195
2016-05-15T04:52:03.516Z,190
2016-05-15T04:53:03.191Z,190
2016-05-15T04:54:03.490Z,195
2016-05-15T04:55:03.462Z,200
2016-05-15T04:56:03.465Z,205
2016-05-15T04:57:03.296Z,205
2016-05-15T04:58:03.423Z,215
2016-05-15T04:59:03.426Z,210
2016-05-15T05:00:03.428Z,210
2016-05-15T05:01:03.228Z,245
2016-05-15T05:02:03.387Z,215
2016-05-15T05:03:03.202Z,220
2016-05-15T05:04:03.362Z,230
2016-05-15T05:05:03.348Z,235
2016-05-15T05:06:03.303Z,240
2016-05-15T05:07:03.292Z,250
2016-05-15T05:08:03.278Z,255
2016-05-15T05:09:02.968Z,265
2016-05-15T05:10:03.112Z,275
2016-05-15T05:11:03.083Z,285
2016-05-15T05:12:03.227Z,290
2016-05-15T05:13:03.197Z,295
2016-05-15T05:14:03.200Z,305
2016-05-15T05:15:03.188Z,310
2016-05-15T05:16:03.159Z,325
2016-05-15T05:17:03.146Z,330
2016-05-15T05:18:03.133Z,335
2016-05-15T05:19:03.136Z,345
2016-05-15T05:20:03.107Z,350
2016-05-15T05:21:03.094Z,375
2016-05-15T05:22:03.082Z,400
2016-05-15T05:23:03.068Z,435
2016-05-15T05:24:03.056Z,455
2016-05-15T05:25:02.729Z,480
2016-05-15T05:26:03.030Z,490
2016-05-15T05:27:02.845Z,505
2016-05-15T05:28:02.831Z,520
2016-05-15T05:29:02.960Z,515
2016-05-15T05:30:02.962Z,500
2016-05-15T05:31:02.964Z,485
2016-05-15T05:32:02.623Z,485
2016-05-15T05:33:02.768Z,465
2016-05-15T05:34:02.786Z,510
2016-05-15T05:35:02.585Z,615
2016-05-15T05:36:02.901Z,625
2016-05-15T05:37:02.575Z,645
2016-05-15T05:38:02.702Z,555
2016-05-15T05:39:02.861Z,475
2016-05-15T05:40:02.677Z,500
2016-05-15T05:41:02.664Z,500
2016-05-15T05:42:02.807Z,745
2016-05-15T05:43:02.825Z,505
2016-05-15T05:44:02.797Z,460
2016-05-15T05:45:02.783Z,450
2016-05-15T05:46:02.615Z,445
2016-05-15T05:47:02.586Z,450
2016-05-15T05:48:02.746Z,445
2016-05-15T05:49:02.607Z,445
2016-05-15T05:50:02.579Z,435
2016-05-15T05:51:02.722Z,430
2016-05-15T05:52:02.709Z,440
2016-05-15T05:53:02.680Z,450
2016-05-15T05:54:02.699Z,460
2016-05-15T05:55:02.654Z,470
2016-05-15T05:56:02.657Z,480
2016-05-15T05:57:02.660Z,490
2016-05-15T05:58:02.631Z,490
2016-05-15T05:59:02.306Z,495
2016-05-15T06:00:02.448Z,480
2016-05-15T06:01:02.593Z,455
2016-05-15T06:02:02.579Z,450
2016-05-15T06:03:02.567Z,465
2016-05-15T06:04:01.960Z,485
2016-05-15T06:05:02.931Z,495
2016-05-15T06:06:02.372Z,505
2016-05-15T06:07:02.359Z,515
2016-05-15T06:08:02.502Z,530
2016-05-15T06:09:02.333Z,540
2016-05-15T06:10:02.475Z,545
2016-05-15T06:11:02.167Z,565
2016-05-15T06:12:02.450Z,575
2016-05-15T06:13:02.281Z,580
2016-05-15T06:14:02.283Z,580
2016-05-15T06:15:02.255Z,590
2016-05-15T06:16:02.242Z,600
2016-05-15T06:17:02.385Z,620
2016-05-15T06:18:02.373Z,675
2016-05-15T06:19:02.829Z,635
2016-05-15T06:20:02.081Z,625
2016-05-15T06:21:02.178Z,625
2016-05-15T06:22:02.180Z,625
2016-05-15T06:23:02.307Z,615
2016-05-15T06:24:02.310Z,600
2016-05-15T06:25:02.157Z,590
2016-05-15T06:26:02.129Z,585
2016-05-15T06:27:02.100Z,590
2016-05-15T06:28:02.243Z,585
2016-05-15T06:29:02.246Z,570
2016-05-15T06:30:02.061Z,560
2016-05-15T06:31:02.048Z,580
2016-05-15T06:32:02.207Z,620
2016-05-15T06:33:02.179Z,675
2016-05-15T06:34:02.931Z,750
2016-05-15T06:35:02.481Z,830
2016-05-15T06:36:02.000Z,875
2016-05-15T06:37:01.986Z,875
2016-05-15T06:38:02.114Z,845
2016-05-15T06:39:01.928Z,810
2016-05-15T06:40:01.636Z,785
2016-05-15T06:41:02.075Z,780
2016-05-15T06:42:02.077Z,785
2016-05-15T06:43:02.065Z,805
2016-05-15T06:44:02.052Z,835
2016-05-15T06:45:01.883Z,840
2016-05-15T06:46:01.869Z,880
2016-05-15T06:47:02.014Z,880
2016-05-15T06:48:01.844Z,925
2016-05-15T06:49:02.846Z,915
2016-05-15T06:50:02.303Z,960
2016-05-15T06:51:01.961Z,1015
2016-05-15T06:52:01.792Z,1115
2016-05-15T06:53:01.935Z,1070
2016-05-15T06:54:01.938Z,1095
2016-05-15T06:55:01.910Z,1160
2016-05-15T06:56:01.756Z,1980
2016-05-15T06:57:01.899Z,1055
2016-05-15T06:58:01.887Z,1155
2016-05-15T06:59:01.889Z,1395
2016-05-15T07:00:01.860Z,1050
2016-05-15T07:01:01.863Z,1110
2016-05-15T07:02:01.710Z,1210
2016-05-15T07:03:01.853Z,1215
2016-05-15T07:04:01.840Z,1700
2016-05-15T07:05:01.671Z,1605
2016-05-15T07:06:01.830Z,1860
2016-05-15T07:07:01.660Z,2080
2016-05-15T07:08:01.648Z,1360
2016-05-15T07:09:01.791Z,1500
2016-05-15T07:10:01.778Z,1385
2016-05-15T07:11:01.780Z,1395
2016-05-15T07:12:01.768Z,1405
2016-05-15T07:13:01.614Z,1540
2016-05-15T07:14:01.601Z,1065
2016-05-15T07:15:01.589Z,825
2016-05-15T07:16:01.575Z,655
2016-05-15T07:17:01.719Z,590
2016-05-15T07:18:01.722Z,590
2016-05-15T07:19:01.724Z,645
2016-05-15T07:20:01.696Z,720
2016-05-15T07:21:01.698Z,765
2016-05-15T07:22:01.373Z,805
2016-05-15T07:23:01.751Z,850
2016-05-15T07:24:01.675Z,925
2016-05-15T07:25:01.662Z,990
2016-05-15T07:26:01.634Z,1045
2016-05-15T07:27:01.637Z,1095
2016-05-15T07:28:01.623Z,1125
2016-05-15T07:29:01.470Z,1040
2016-05-15T07:30:01.598Z,1075
2016-05-15T07:31:01.444Z,745
2016-05-15T07:32:01.275Z,715
2016-05-15T07:33:01.590Z,745
2016-05-15T07:34:01.452Z,790
2016-05-15T07:35:01.704Z,835
2016-05-15T07:36:01.394Z,875
2016-05-15T07:37:01.554Z,905
2016-05-15T07:38:01.525Z,935
2016-05-15T07:39:01.376Z,1005
2016-05-15T07:40:01.406Z,1095
2016-05-15T07:41:01.625Z,1190
2016-05-15T07:42:01.467Z,1990
2016-05-15T07:43:01.513Z,1310
2016-05-15T07:44:01.516Z,1220
2016-05-15T07:45:01.534Z,1115
2016-05-15T07:46:01.694Z,1065
2016-05-15T07:47:01.696Z,1055
2016-05-15T07:48:01.698Z,1125
2016-05-15T07:49:01.712Z,1185
2016-05-15T07:50:01.548Z,1250
2016-05-15T07:51:01.697Z,1405
2016-05-15T07:52:01.689Z,1490
2016-05-15T07:53:24.042Z,1335
2016-05-15T07:54:01.704Z,1360
2016-05-15T07:55:01.677Z,1380
2016-05-15T07:56:01.667Z,1265
2016-05-15T07:57:01.655Z,1605
2016-05-15T07:58:01.660Z,1475
2016-05-15T07:59:01.648Z,1595
2016-05-15T08:00:01.496Z,1395
2016-05-15T08:01:01.655Z,1445
2016-05-15T08:02:01.315Z,1450
2016-05-15T08:03:01.475Z,1380
2016-05-15T08:04:01.931Z,1290
2016-05-15T08:05:01.293Z,1115
2016-05-15T08:06:01.296Z,1295
2016-05-15T08:07:01.425Z,1695
2016-05-15T08:08:01.585Z,1860
2016-05-15T08:09:01.774Z,1550
2016-05-15T08:10:01.591Z,1580
2016-05-15T08:11:01.561Z,1430
2016-05-15T08:12:01.391Z,1455
2016-05-15T08:13:01.379Z,1420
2016-05-15T08:14:01.382Z,1260
2016-05-15T08:15:01.525Z,1020
2016-05-15T08:16:01.512Z,825
2016-05-15T08:17:01.343Z,670
2016-05-15T08:18:01.705Z,570
2016-05-15T08:19:01.614Z,500
2016-05-15T08:20:01.898Z,520
2016-05-15T08:21:01.463Z,630
2016-05-15T08:22:01.435Z,725
2016-05-15T08:23:01.484Z,770
2016-05-15T08:24:01.565Z,815
2016-05-15T08:25:01.302Z,905
2016-05-15T08:26:01.320Z,995
2016-05-15T08:27:01.261Z,1065
2016-05-15T08:28:01.403Z,1150
2016-05-15T08:29:01.392Z,1125
2016-05-15T08:30:01.503Z,970
2016-05-15T08:31:01.364Z,785
2016-05-15T08:32:01.227Z,655
2016-05-15T08:33:01.183Z,600
2016-05-15T08:34:01.217Z,540
2016-05-15T08:35:01.203Z,450
2016-05-15T08:36:01.332Z,405
2016-05-15T08:37:01.366Z,385
2016-05-15T08:38:01.133Z,415
2016-05-15T08:39:01.122Z,525
2016-05-15T08:40:01.139Z,655
2016-05-15T08:41:01.266Z,730
2016-05-15T08:42:01.254Z,740
2016-05-15T08:43:01.085Z,780
2016-05-15T08:44:00.916Z,920
2016-05-15T08:45:01.215Z,1015
2016-05-15T08:46:01.218Z,1200
2016-05-15T08:47:01.174Z,1405
2016-05-15T08:48:01.176Z,3405
2016-05-15T08:49:01.179Z,3745
2016-05-15T08:50:00.854Z,1670
2016-05-15T08:51:01.138Z,3650
2016-05-15T08:52:01.124Z,1815
2016-05-15T08:53:00.971Z,2280
2016-05-15T08:54:00.958Z,970
2016-05-15T08:55:00.945Z,830
2016-05-15T08:56:00.792Z,725
2016-05-15T08:57:01.092Z,645
2016-05-15T08:58:00.937Z,605
2016-05-15T08:59:01.081Z,610
2016-05-15T09:00:01.053Z,655
2016-05-15T09:01:01.039Z,700
2016-05-15T09:02:00.870Z,785
2016-05-15T09:03:00.873Z,970
2016-05-15T09:04:01.016Z,3545
2016-05-15T09:05:01.114Z,3665
2016-05-15T09:06:00.850Z,3790
2016-05-15T09:07:01.289Z,3990
2016-05-15T09:08:00.886Z,4260
2016-05-15T09:09:00.966Z,2330
2016-05-15T09:10:00.813Z,1805
2016-05-15T09:11:00.958Z,1870
2016-05-15T09:12:00.944Z,1900
2016-05-15T09:13:00.790Z,3480
2016-05-15T09:14:00.622Z,2020
2016-05-15T09:15:00.780Z,2005
2016-05-15T09:16:00.907Z,2160
2016-05-15T09:17:01.051Z,2295
2016-05-15T09:18:00.742Z,2060
2016-05-15T09:19:00.885Z,1545
2016-05-15T09:20:01.231Z,1385
2016-05-15T09:21:00.952Z,1180
2016-05-15T09:22:00.720Z,1115
2016-05-15T09:23:00.865Z,1105
2016-05-15T09:24:00.695Z,1120
2016-05-15T09:25:00.682Z,1170
2016-05-15T09:26:00.841Z,1310
2016-05-15T09:27:00.843Z,1595
2016-05-15T09:28:00.831Z,2155
2016-05-15T09:29:00.818Z,4400
2016-05-15T09:30:00.664Z,3085
2016-05-15T09:31:00.792Z,3885
2016-05-15T09:32:00.482Z,1980
2016-05-15T09:33:00.625Z,1680
2016-05-15T09:34:00.784Z,1560
2016-05-15T09:35:01.334Z,1445
2016-05-15T09:36:00.617Z,1385
2016-05-15T09:37:00.589Z,1600
2016-05-15T09:38:00.748Z,1590
2016-05-15T09:39:00.892Z,2515
2016-05-15T09:40:00.738Z,2640
2016-05-15T09:41:00.725Z,2230
2016-05-15T09:42:00.728Z,2155
2016-05-15T09:43:00.558Z,1780
2016-05-15T09:44:00.702Z,1665
2016-05-15T09:45:00.704Z,1570
2016-05-15T09:46:00.536Z,1460
2016-05-15T09:47:00.538Z,1295
2016-05-15T09:48:01.385Z,1115
2016-05-15T09:49:00.668Z,930
2016-05-15T09:50:00.234Z,800
2016-05-15T09:51:00.721Z,695
2016-05-15T09:52:00.661Z,620
2016-05-15T09:53:00.648Z,540
2016-05-15T09:54:00.651Z,475
2016-05-15T09:55:00.481Z,435
2016-05-15T09:56:00.640Z,425
2016-05-15T09:57:00.456Z,425
2016-05-15T09:58:00.458Z,415
2016-05-15T09:59:00.446Z,410
2016-05-15T10:00:00.432Z,430
2016-05-15T10:01:00.764Z,455
2016-05-15T10:02:00.562Z,485
2016-05-15T10:03:00.722Z,520
2016-05-15T10:04:00.537Z,555
2016-05-15T10:05:00.399Z,580
2016-05-15T10:06:00.527Z,615
2016-05-15T10:07:00.514Z,675
2016-05-15T10:08:00.486Z,745
2016-05-15T10:09:00.488Z,785
2016-05-15T10:10:00.474Z,840
2016-05-15T10:11:00.461Z,920
2016-05-15T10:12:00.465Z,1035
2016-05-15T10:13:00.452Z,1140
2016-05-15T10:14:00.282Z,1235
2016-05-15T10:15:00.427Z,1300
2016-05-15T10:16:00.429Z,1345
2016-05-15T10:17:00.432Z,1400
2016-05-15T10:18:00.230Z,1475
2016-05-15T10:19:00.391Z,1740
2016-05-15T10:20:00.502Z,3065
2016-05-15T10:21:00.364Z,4340
2016-05-15T10:22:00.351Z,4355
2016-05-15T10:23:00.197Z,4295
2016-05-15T10:24:00.357Z,3895
2016-05-15T10:25:00.328Z,4345
2016-05-15T10:26:00.331Z,1745
2016-05-15T10:27:00.317Z,2730
2016-05-15T10:28:00.414Z,4185
2016-05-15T10:29:00.385Z,4145
2016-05-15T10:30:00.310Z,4320
2016-05-15T10:31:00.297Z,3260
2016-05-15T10:32:00.128Z,2025
2016-05-15T10:33:00.271Z,2030
2016-05-15T10:34:00.259Z,2070
2016-05-15T10:35:01.339Z,2080
2016-05-15T10:36:00.263Z,1840
2016-05-15T10:37:00.111Z,1565
2016-05-15T10:38:00.254Z,1345
2016-05-15T10:39:00.225Z,1155
2016-05-15T10:40:00.227Z,995
2016-05-15T10:41:00.215Z,855
2016-05-15T10:42:00.233Z,745
2016-05-15T10:42:59.908Z,640
2016-05-15T10:44:00.222Z,540
2016-05-15T10:44:59.882Z,445
2016-05-15T10:46:00.197Z,370
2016-05-15T10:47:00.184Z,320
2016-05-15T10:48:00.186Z,290
2016-05-15T10:49:00.018Z,295
2016-05-15T10:50:00.082Z,330
2016-05-15T10:51:00.180Z,410
2016-05-15T10:52:00.135Z,510
2016-05-15T10:53:00.121Z,635
2016-05-15T10:54:00.124Z,740
2016-05-15T10:54:59.970Z,800
2016-05-15T10:56:00.115Z,830
2016-05-15T10:56:59.929Z,855
2016-05-15T10:57:59.917Z,915
2016-05-15T10:59:00.075Z,1025
2016-05-15T10:59:59.907Z,1155
2016-05-15T11:01:00.050Z,1295
2016-05-15T11:01:59.896Z,1370
2016-05-15T11:03:00.023Z,1360
2016-05-15T11:03:59.871Z,1325
2016-05-15T11:05:00.122Z,1220
2016-05-15T11:06:00.064Z,1015
2016-05-15T11:07:00.003Z,765
2016-05-15T11:07:59.819Z,580
2016-05-15T11:08:59.649Z,505
2016-05-15T11:09:59.950Z,470
2016-05-15T11:10:59.952Z,460
2016-05-15T11:11:59.955Z,445
2016-05-15T11:12:59.769Z,435
2016-05-15T11:13:59.913Z,435
2016-05-15T11:14:59.915Z,425
2016-05-15T11:15:59.919Z,405
2016-05-15T11:16:59.733Z,385
2016-05-15T11:17:59.721Z,370
2016-05-15T11:18:59.707Z,355
2016-05-15T11:19:59.929Z,335
2016-05-15T11:20:59.838Z,335
2016-05-15T11:21:59.684Z,390
2016-05-15T11:22:59.827Z,515
2016-05-15T11:24:15.690Z,690
2016-05-15T11:24:59.645Z,795
2016-05-15T11:25:59.788Z,915
2016-05-15T11:26:59.620Z,1010
2016-05-15T11:27:59.465Z,1090
2016-05-15T11:28:59.625Z,1180
2016-05-15T11:29:59.737Z,1325
2016-05-15T11:30:59.740Z,1440
2016-05-15T11:31:59.726Z,4465
2016-05-15T11:32:59.698Z,1935
2016-05-15T11:33:59.545Z,3355
2016-05-15T11:34:59.548Z,3830
2016-05-15T11:35:59.519Z,4175
2016-05-15T11:36:59.678Z,4150
2016-05-15T11:37:59.508Z,4165
2016-05-15T11:38:59.480Z,4245
2016-05-15T11:39:59.639Z,4120
2016-05-15T11:40:59.642Z,1975
2016-05-15T11:41:59.472Z,3840
2016-05-15T11:42:59.725Z,3050
2016-05-15T11:43:59.461Z,3910
2016-05-15T11:44:59.606Z,2330
2016-05-15T11:45:59.608Z,1675
2016-05-15T11:46:59.611Z,1405
2016-05-15T11:47:59.597Z,1190
2016-05-15T11:48:59.429Z,1000
2016-05-15T11:49:59.712Z,820
2016-05-15T11:50:59.591Z,665
2016-05-15T11:51:59.562Z,565
2016-05-15T11:52:59.408Z,510
2016-05-15T11:53:59.660Z,480
2016-05-15T11:54:59.382Z,460
2016-05-15T11:55:59.868Z,470
2016-05-15T11:56:59.544Z,490
2016-05-15T11:57:59.563Z,550
2016-05-15T11:58:59.534Z,645
2016-05-15T11:59:59.504Z,800
2016-05-15T12:00:59.711Z,945
2016-05-15T12:01:59.510Z,1120
2016-05-15T12:02:59.498Z,1280
2016-05-15T12:03:59.329Z,1450
2016-05-15T12:04:59.393Z,1935
2016-05-15T12:05:59.459Z,1650
2016-05-15T12:06:59.320Z,1675
2016-05-15T12:07:59.276Z,2105
2016-05-15T12:08:59.467Z,2140
2016-05-15T12:09:59.282Z,4230
2016-05-15T12:10:59.409Z,4245
2016-05-15T12:11:59.397Z,4180
2016-05-15T12:12:59.400Z,4155
2016-05-15T12:13:59.403Z,4290
2016-05-15T12:14:59.389Z,3405
2016-05-15T12:15:59.377Z,1630
2016-05-15T12:16:59.379Z,1965
2016-05-15T12:17:59.366Z,4540
2016-05-15T12:18:59.352Z,1280
2016-05-15T12:19:59.824Z,1160
2016-05-15T12:20:59.062Z,1230
2016-05-15T12:21:59.377Z,1375
2016-05-15T12:22:59.333Z,1595
2016-05-15T12:23:59.335Z,1660
2016-05-15T12:24:59.197Z,1625
2016-05-15T12:25:59.324Z,2220
2016-05-15T12:26:59.313Z,1865
2016-05-15T12:27:59.299Z,2125
2016-05-15T12:28:59.302Z,2025
2016-05-15T12:29:58.992Z,1880
2016-05-15T12:30:59.292Z,1765
2016-05-15T12:31:59.295Z,1835
2016-05-15T12:32:59.282Z,1745
2016-05-15T12:33:59.284Z,1840
2016-05-15T12:34:59.193Z,2045
2016-05-15T12:35:59.101Z,3185
2016-05-15T12:36:59.261Z,2750
2016-05-15T12:37:58.936Z,1670
2016-05-15T12:38:59.251Z,1660
2016-05-15T12:39:59.254Z,4515
2016-05-15T12:40:59.240Z,3935
2016-05-15T12:41:59.072Z,1655
2016-05-15T12:42:59.214Z,1450
2016-05-15T12:43:59.233Z,1430
2016-05-15T12:44:59.219Z,1425
2016-05-15T12:45:59.208Z,1270
2016-05-15T12:46:59.053Z,1020
2016-05-15T12:47:59.197Z,805
2016-05-15T12:48:59.200Z,625
2016-05-15T12:49:59.608Z,505
2016-05-15T12:50:59.017Z,425
2016-05-15T12:51:59.019Z,355
2016-05-15T12:52:59.163Z,335
2016-05-15T12:53:59.150Z,375
2016-05-15T12:54:58.997Z,480
2016-05-15T12:55:59.140Z,635
2016-05-15T12:56:59.127Z,810
2016-05-15T12:57:59.115Z,1000
2016-05-15T12:58:59.133Z,1195
2016-05-15T12:59:59.104Z,1365
2016-05-15T13:00:58.779Z,1795
2016-05-15T13:01:59.078Z,1895
2016-05-15T13:02:58.909Z,3780
2016-05-15T13:03:58.911Z,3310
2016-05-15T13:04:59.446Z,2445
2016-05-15T13:05:58.901Z,1475
2016-05-15T13:06:58.889Z,1480
2016-05-15T13:07:59.031Z,2295
2016-05-15T13:08:58.878Z,1300
2016-05-15T13:09:59.005Z,1105
2016-05-15T13:10:59.024Z,965
2016-05-15T13:11:59.012Z,895
2016-05-15T13:12:58.998Z,840
2016-05-15T13:13:58.986Z,810
2016-05-15T13:14:58.988Z,815
2016-05-15T13:15:58.975Z,870
2016-05-15T13:16:58.962Z,1100
2016-05-15T13:17:58.950Z,1125
2016-05-15T13:18:58.936Z,1250
2016-05-15T13:19:59.095Z,1500
2016-05-15T13:20:58.801Z,1505
2016-05-15T13:21:58.913Z,1610
2016-05-15T13:22:58.760Z,3065
2016-05-15T13:23:58.902Z,1760
2016-05-15T13:24:59.141Z,1805
2016-05-15T13:25:58.877Z,1900
2016-05-15T13:26:58.863Z,3350
2016-05-15T13:27:58.882Z,2120
2016-05-15T13:28:58.854Z,2325
2016-05-15T13:29:58.700Z,1890
2016-05-15T13:30:58.813Z,1855
2016-05-15T13:31:58.534Z,4360
2016-05-15T13:32:58.662Z,4650
2016-05-15T13:33:58.664Z,4440
2016-05-15T13:34:59.448Z,3930
2016-05-15T13:35:58.810Z,3595
2016-05-15T13:36:58.797Z,3275
2016-05-15T13:37:58.472Z,3580
2016-05-15T13:38:58.787Z,3470
2016-05-15T13:39:58.634Z,3125
2016-05-15T13:40:58.620Z,2920
2016-05-15T13:41:58.779Z,3215
2016-05-15T13:42:58.750Z,3790
2016-05-15T13:43:58.785Z,2190
2016-05-15T13:44:58.756Z,1865
2016-05-15T13:45:58.759Z,3015
2016-05-15T13:46:58.762Z,1915
2016-05-15T13:47:58.733Z,2815
2016-05-15T13:48:58.627Z,2830
2016-05-15T13:49:58.441Z,1875
2016-05-15T13:50:58.725Z,2450
2016-05-15T13:51:58.556Z,2440
2016-05-15T13:52:58.715Z,2150